Tacoma, WA (98403)

10:00 AM PDT on August 20, 2014 (GMT -0700)
North Tacoma | Change Station
CLOSE
Current Station
Personal Weather Station
Location: Tacoma, WA
Elevation: 295 ft
Nearby Weather Stations

Elev 295 ft 47.27 °N, 122.48 °W | Updated 22 seconds ago

Overcast
Overcast
60.2 °F
Feels Like 60.2 °F
N
3.0
Wind Variable Wind from SW
Gusts 8.0 mph

Today
High -- | Low -- °F
--% Chance of Precip.
Yesterday
High -- | Low -- °F
Precip. -- in
6:13 AM 8:12 PM
Waning Crescent, 20% visible
Pressure 29.96 in
Visibility 10.0 miles
Clouds Scattered Clouds 2500 ft
Overcast 3300 ft
Dew Point 52 °F
Humidity 75%
Rainfall 0.00 in
Snow Depth Not available.
UV 1 out of 12
Pollen 2.70 out of 12
PM2.5 Good
Flu Activity Not available.
METAR KTIW 201653Z 18008KT 10SM SCT025 OVC033 16/10 A2997 RMK AO2 SLP145 T01610100

More Conditions Fewer Conditions

Pressure 29.96 in
Visibility 10.0 miles
Clouds Scattered Clouds 2500 ft
Overcast 3300 ft
Dew Point 52 °F
Humidity 75%
Rainfall 0.00 in
Snow Depth Not available.
UV 1 out of 12
Pollen 2.70 out of 12
PM2.5 Good
Flu Activity Not available.
METAR KTIW 201653Z 18008KT 10SM SCT025 OVC033 16/10 A2997 RMK AO2 SLP145 T01610100

More Conditions Fewer Conditions

10-Day Weather Forecast

Almanac

Astronomy

Aug. 20, 2014 Rise Set
Actual Time 6:13 AM PDT 8:12 PM PDT
Civil Twilight 5:40 AM PDT 8:45 PM PDT
Nautical Twilight 4:59 AM PDT 9:25 PM PDT
Astronomical Twilight 4:14 AM PDT 10:10 PM PDT
Moon 1:50 AM PDT 5:08 PM PDT
Length of Visible Light 15h 04m
Length of Day
13h 59m
Tomorrow will be 3m 8s shorter.
Waning Crescent, 20% of the Moon is Illuminated
Today
Waning Crescent
Aug 25
New
Sep 2
First Quarter
Sep 8
Full
Sep 15
Last Quarter

Today's Extremes

State Highs State Lows

Community

WunderPhotos

Upload Photos

1,745,694 photos uploaded!

WunderBlogs® & News

Nearby

Air Quality

  Air Quality AQ Index Pollutant
Yesterday Good
PM2.5
Current Good
PM2.5
Wednesday Good
OZONE
Wednesday Good
PM2.5
Thursday Good
OZONE
Thursday Good
PM2.5
Friday Good
OZONE
Friday Good
PM2.5
Saturday Good
OZONE
Saturday Good
PM2.5

Snow Depth

Station Depth Elevation
Burnt Mountain 0 in 4200 ft
Mount Crag 0 in 4050 ft
Meadows Pass 0 in 3500 ft
Olallie Meadows 2 in 3700 ft
Skookum Creek 0 in 3920 ft

Earthquake Activity

City Distance Mag. Time & Date
No recent earthquake activity has been reported nearby.
Minimum magnitude displayed is 2.5.

Coastal Water Temperatures

Place Temperature
Port Townsend, WA 54.0 °F
Seattle, WA 57.9 °F
Friday Harbor, WA 55.0 °F
Tacoma, WA 57.0 °F

Nearby Weather Stations